Davenport, WA

4:43 PM PDT on August 29, 2016 (GMT -0700)
Harrington Golf & CC 5th Tee Box | | Change Station

Elev 2247 ft 47.47 °N, 118.25 °W | Updated 10 seconds ago

Clear
Clear
90.1 °F
Feels Like 86 °F
N
2.5
Wind Variable Wind from NW
Gusts 2.5 mph

Today
High -- | Low -- °F
--% Chance of Precip.
Yesterday
High -- | Low -- °F
Precip. -- in
Pressure 29.93 in
Visibility 10.0 miles
Clouds Clear
Heat Index 86 °F
Dew Point 26 °F
Humidity 10%
Rainfall 0.00 in
Snow Depth Not available.
6:07 AM 7:37 PM
Waning Crescent, 6% visible
METAR KSKA 292258Z AUTO VRB03KT 10SM CLR 32/05 A2997 RMK AO2 SLP135 T03210048 PWINO $
Pressure 29.93 in
Visibility 10.0 miles
Clouds Clear
Heat Index 86 °F
Dew Point 26 °F
Humidity 10%
Rainfall 0.00 in
Snow Depth Not available.
6:07 AM 7:37 PM
Waning Crescent, 6% visible
METAR KSKA 292258Z AUTO VRB03KT 10SM CLR 32/05 A2997 RMK AO2 SLP135 T03210048 PWINO $

10-Day Weather Forecast

Almanac

Astronomy

Aug. 29, 2016 Rise Set
Actual Time
Civil Twilight
Nautical Twilight
Astronomical Twilight
Moon
Length of Visible Light
Length of Day
Tomorrow will be .
, % of the Moon is Illuminated

Today's Extremes

State Highs State Lows

Community

WunderPhotos

Upload Photos

1,935,695 photos uploaded!

WunderBlog® & News

Nearby

Air Quality

  Air Quality AQ Index Pollutant
Not available.

Snow Depth

Station Depth Elevation

Earthquake Activity

City Distance Mag. Time & Date
Minimum magnitude displayed is 2.5.

Coastal Water Temperatures

Place Temperature

Stations

Nearby Weather Stations

Station Location Temp. Windchill Dew Point Humidity Wind Precip. Elev Updated Type
                   

Watches & Warnings

There are currently no watches in effect.